Saint-Pierre の空港の天気 - METARとTAF

サンピエール空港 ( LFVP / FSP ) - サンピエール島・ミクロン島 Saint-Pierre
飛行場実況気象(Metar)
観測時間08/13 06:00 PMDT (08/13 08:00 UTC)
風向・風速北北東 2m/s
視程1200m
天気現象散在した霧
全天を覆う雲 雲底高度 90m
気温17℃
湿度100%
気圧1013hPa
METARLFVP 130800Z AUTO 02003KT 1200 0900 R26/1600D BCFG OVC003 17/17 Q1013
過去の天気等 Google飛行場航空写真 Wunderground天気予報

過去48時間のMETAR

飛行場予報(TAF)
発表時間: 8/12 15:00 PMDT (8/12 17:00 UTC)
予報対象時間: 12日16時 PMDT ~ 13日1時 PMDT
風向・風速東 8m/s
視程3500m
天気現象もや
全天を覆う雲 雲底高度 90m
12日17時 PMDT ~ 12日19時 PMDT に徐々に
風向・風速南東 6m/s
視程2500m
天気現象弱いしゅう雨 もや
全天を覆う雲 雲底高度 240m
12日18時 PMDT から 確率 40% で
天気現象しゅう雨
全天の4割程度の積乱雲 雲底高度 1070m
12日21時 PMDT ~ 12日24時 PMDT に徐々に
風向・風速南南西 5m/s
視程1000m
天気現象もや
TAF LFVP 121700Z 1218/1303 08015KT 3500 BR OVC003
BECMG 1219/1221 14012KT 2500 -SHRA BR OVC008
PROB40 1220/1223 SHRA SCT035CB
BECMG 1223/1302 20010KT 1000 BR